createdAt,value
2022-10-23T00:01:45.933Z,96714.94
2022-10-23T00:04:17.456Z,96711.66
2022-10-23T00:06:47.744Z,96710.16
2022-10-23T00:09:21.119Z,96712.38
2022-10-23T00:11:51.294Z,96713.94
2022-10-23T00:14:22.581Z,96702.19
2022-10-23T00:16:51.231Z,96707.75
2022-10-23T00:19:19.727Z,96693.94
2022-10-23T00:21:48.250Z,96689.47
2022-10-23T00:24:19.391Z,96699.75
2022-10-23T00:26:50.449Z,96705.44
2022-10-23T00:29:19.730Z,96702.94
2022-10-23T00:31:48.066Z,96713.38
2022-10-23T00:34:19.863Z,96702.72
2022-10-23T00:36:48.518Z,96709.94
2022-10-23T00:39:19.124Z,96708.56
2022-10-23T00:41:48.007Z,96710.44
2022-10-23T00:44:58.678Z,96712.72
2022-10-23T00:47:27.928Z,96713.66
2022-10-23T00:49:56.381Z,96716.94
2022-10-23T00:52:25.518Z,96716.38
2022-10-23T00:54:55.788Z,96710.13
2022-10-23T00:57:24.672Z,96705.75
2022-10-23T00:59:53.637Z,96704.81
2022-10-23T01:02:23.592Z,96707.16
2022-10-23T01:04:52.624Z,96706.84
2022-10-23T01:07:29.034Z,96711.69
2022-10-23T01:10:06.969Z,96717.81
2022-10-23T01:12:43.504Z,96715.19
2022-10-23T01:15:18.016Z,96719.44
2022-10-23T01:17:53.191Z,96725.44
2022-10-23T01:20:38.615Z,96718.72
2022-10-23T01:23:43.384Z,96711.63
2022-10-23T01:26:36.400Z,96715.09
2022-10-23T01:29:11.456Z,96703.88
2022-10-23T01:31:46.286Z,96707.16
2022-10-23T01:34:19.341Z,96702.00
2022-10-23T01:36:52.211Z,96705.06
2022-10-23T01:39:25.341Z,96704.31
2022-10-23T01:41:58.267Z,96697.25
2022-10-23T01:44:38.039Z,96698.81
2022-10-23T01:47:09.822Z,96688.56
2022-10-23T01:49:53.501Z,96685.59
2022-10-23T01:52:24.122Z,96689.63
2022-10-23T01:54:56.063Z,96680.34
2022-10-23T01:57:28.515Z,96675.25
2022-10-23T02:00:02.882Z,96682.09
2022-10-23T02:02:34.647Z,96672.66
2022-10-23T02:05:09.536Z,96667.72
2022-10-23T02:07:39.881Z,96667.59
2022-10-23T02:10:10.706Z,96667.00
2022-10-23T02:12:48.947Z,96666.41
2022-10-23T02:15:25.636Z,96653.81
2022-10-23T02:18:04.905Z,96650.78
2022-10-23T02:20:40.634Z,96653.13
2022-10-23T02:23:20.161Z,96652.19
2022-10-23T02:25:55.223Z,96652.22
2022-10-23T02:28:27.975Z,96640.91
2022-10-23T02:31:03.829Z,96648.78
2022-10-23T02:33:34.275Z,96649.63
2022-10-23T02:36:03.774Z,96646.22
2022-10-23T02:38:35.885Z,96646.22
2022-10-23T02:41:17.228Z,96647.38
2022-10-23T02:43:55.292Z,96643.97
2022-10-23T02:46:31.663Z,96643.25
2022-10-23T02:49:11.899Z,96645.03
2022-10-23T02:51:54.001Z,96651.75
2022-10-23T02:54:38.091Z,96631.59
2022-10-23T02:57:17.535Z,96642.78
2022-10-23T02:59:53.941Z,96629.25
2022-10-23T03:02:27.233Z,96632.78
2022-10-23T03:04:59.758Z,96638.91
2022-10-23T03:07:28.803Z,96634.78
2022-10-23T03:10:05.976Z,96634.78
2022-10-23T03:12:35.438Z,96622.06
2022-10-23T03:15:06.095Z,96621.84
2022-10-23T03:17:36.906Z,96621.59
2022-10-23T03:20:05.686Z,96616.53
2022-10-23T03:22:34.944Z,96620.88
2022-10-23T03:25:03.782Z,96637.84
2022-10-23T03:27:34.124Z,96626.44
2022-10-23T03:30:08.035Z,96622.66
2022-10-23T03:32:40.905Z,96631.38
2022-10-23T03:35:10.989Z,96632.44
2022-10-23T03:37:40.158Z,96625.47
2022-10-23T03:40:10.137Z,96630.53
2022-10-23T03:42:39.516Z,96626.66
2022-10-23T03:45:10.294Z,96629.34
2022-10-23T03:47:41.776Z,96642.44
2022-10-23T03:50:11.540Z,96640.44
2022-10-23T03:52:40.597Z,96634.66
2022-10-23T03:55:09.990Z,96639.72
2022-10-23T03:57:39.323Z,96627.09
2022-10-23T04:00:09.803Z,96617.69
2022-10-23T04:02:50.236Z,96618.16
2022-10-23T04:05:19.674Z,96623.59
2022-10-23T04:07:55.682Z,96624.03
2022-10-23T04:10:25.204Z,96619.25
2022-10-23T04:12:53.546Z,96615.56
2022-10-23T04:15:22.407Z,96610.75
2022-10-23T04:17:52.182Z,96608.06
2022-10-23T04:20:21.801Z,96612.16
2022-10-23T04:22:50.237Z,96605.69
2022-10-23T04:25:18.769Z,96607.47
2022-10-23T04:27:47.249Z,96602.06
2022-10-23T04:30:15.616Z,96607.56
2022-10-23T04:32:47.144Z,96611.34
2022-10-23T04:35:19.074Z,96610.63
2022-10-23T04:37:49.299Z,96611.22
2022-10-23T04:40:18.594Z,96605.34
2022-10-23T04:42:46.995Z,96604.28
2022-10-23T04:45:15.518Z,96610.03
2022-10-23T04:47:44.699Z,96615.25
2022-10-23T04:50:13.063Z,96605.44
2022-10-23T04:53:02.133Z,96598.38
2022-10-23T04:56:03.400Z,96603.81
2022-10-23T04:58:47.326Z,96604.63
2022-10-23T05:01:16.806Z,96596.28
2022-10-23T05:03:45.318Z,96592.16
2022-10-23T05:06:15.058Z,96597.81
2022-10-23T05:09:11.757Z,96594.38
2022-10-23T05:12:00.377Z,96595.47
2022-10-23T05:14:29.761Z,96593.34
2022-10-23T05:17:01.799Z,96581.19
2022-10-23T05:19:36.446Z,96586.59
2022-10-23T05:22:06.284Z,96588.50
2022-10-23T05:24:51.316Z,96595.34
2022-10-23T05:27:23.641Z,96597.22
2022-10-23T05:29:53.894Z,96600.88
2022-10-23T05:32:29.038Z,96598.84
2022-10-23T05:34:58.077Z,96595.47
2022-10-23T05:37:30.352Z,96593.81
2022-10-23T05:40:12.559Z,96596.84
2022-10-23T05:42:43.738Z,96604.75
2022-10-23T05:45:15.469Z,96605.94
2022-10-23T05:48:11.079Z,96606.19
2022-10-23T05:51:26.603Z,96606.41
2022-10-23T05:54:27.546Z,96599.56
2022-10-23T05:59:52.620Z,96603.56
2022-10-23T06:02:39.341Z,96598.63
2022-10-23T06:05:16.818Z,96589.22
2022-10-23T06:07:45.502Z,96579.91
2022-10-23T06:10:14.992Z,96578.72
2022-10-23T06:12:48.288Z,96578.50
2022-10-23T06:15:20.102Z,96580.25
2022-10-23T06:18:17.696Z,96593.34
2022-10-23T06:21:01.336Z,96592.63
2022-10-23T06:23:32.447Z,96589.78
2022-10-23T06:26:21.550Z,96592.03
2022-10-23T06:29:00.329Z,96587.78
2022-10-23T06:31:29.980Z,96600.38
2022-10-23T06:34:01.234Z,96602.66
2022-10-23T06:36:31.568Z,96601.81
2022-10-23T06:39:07.452Z,96610.97
2022-10-23T06:41:55.331Z,96598.63
2022-10-23T06:44:58.044Z,96600.16
2022-10-23T06:47:38.267Z,96608.28
2022-10-23T06:50:15.489Z,96608.88
2022-10-23T06:52:47.611Z,96619.25
2022-10-23T06:55:20.300Z,96619.94
2022-10-23T06:57:49.138Z,96609.69
2022-10-23T07:00:19.154Z,96609.56
2022-10-23T07:02:52.068Z,96593.94
2022-10-23T07:05:21.583Z,96608.63
2022-10-23T07:07:50.171Z,96614.19
2022-10-23T07:10:26.726Z,96604.88
2022-10-23T07:13:01.143Z,96599.09
2022-10-23T07:15:54.355Z,96603.94
2022-10-23T07:18:26.261Z,96602.03
2022-10-23T07:21:35.099Z,96612.75
2022-10-23T07:24:23.591Z,96610.16
2022-10-23T07:26:52.962Z,96597.91
2022-10-23T07:29:21.444Z,96590.34
2022-10-23T07:31:52.538Z,96585.72
2022-10-23T07:34:47.446Z,96591.19
2022-10-23T07:37:27.107Z,96586.63
2022-10-23T07:39:56.273Z,96591.34
2022-10-23T07:42:25.516Z,96595.78
2022-10-23T07:44:54.363Z,96591.03
2022-10-23T07:47:24.475Z,96585.53
2022-10-23T07:49:54.711Z,96591.97
2022-10-23T07:52:23.091Z,96595.84
2022-10-23T07:55:15.040Z,96592.72
2022-10-23T07:57:50.942Z,96592.38
2022-10-23T08:00:41.748Z,96590.34
2022-10-23T08:03:20.688Z,96589.75
2022-10-23T08:05:50.151Z,96586.28
2022-10-23T08:08:18.575Z,96595.22
2022-10-23T08:10:52.625Z,96588.72
2022-10-23T08:13:27.938Z,96590.53
2022-10-23T08:16:08.235Z,96598.13
2022-10-23T08:19:08.081Z,96601.97
2022-10-23T08:21:40.381Z,96603.03
2022-10-23T08:24:13.710Z,96603.09
2022-10-23T08:26:45.748Z,96595.41
2022-10-23T08:29:15.403Z,96595.91
2022-10-23T08:31:44.662Z,96599.00
2022-10-23T08:34:25.882Z,96594.41
2022-10-23T08:36:55.815Z,96602.38
2022-10-23T08:39:25.285Z,96602.78
2022-10-23T08:42:23.072Z,96599.38
2022-10-23T08:45:00.390Z,96608.53
2022-10-23T08:47:37.891Z,96595.75
2022-10-23T08:53:10.906Z,96607.09
2022-10-23T08:55:43.993Z,96605.25
2022-10-23T08:58:18.795Z,96602.41
2022-10-23T09:00:49.084Z,96596.72
2022-10-23T09:03:19.002Z,96590.31
2022-10-23T09:05:58.814Z,96589.09
2022-10-23T09:08:40.783Z,96587.84
2022-10-23T09:11:14.773Z,96593.56
2022-10-23T09:14:18.780Z,96600.66
2022-10-23T09:17:04.051Z,96593.03
2022-10-23T09:19:33.519Z,96587.59
2022-10-23T09:22:04.335Z,96589.81
2022-10-23T09:24:33.654Z,96578.59
2022-10-23T09:29:35.874Z,96578.06
2022-10-23T09:32:07.492Z,96593.06
2022-10-23T09:34:36.433Z,96582.97
2022-10-23T09:37:23.887Z,96569.88
2022-10-23T09:40:15.272Z,96557.00
2022-10-23T09:42:59.299Z,96569.28
2022-10-23T09:45:31.395Z,96565.22
2022-10-23T09:48:07.904Z,96562.78
2022-10-23T09:50:36.387Z,96556.25
2022-10-23T09:53:06.614Z,96552.16
2022-10-23T09:55:36.246Z,96550.50
2022-10-23T09:58:06.162Z,96542.28
2022-10-23T10:00:34.922Z,96538.72
2022-10-23T10:03:06.587Z,96547.97
2022-10-23T10:06:00.566Z,96549.25
2022-10-23T10:08:45.291Z,96546.69
2022-10-23T10:11:20.602Z,96543.59
2022-10-23T10:14:15.401Z,96541.28
2022-10-23T10:16:51.784Z,96536.09
2022-10-23T10:19:33.567Z,96530.31
2022-10-23T10:22:12.011Z,96532.31
2022-10-23T10:24:50.600Z,96526.59
2022-10-23T10:27:34.260Z,96527.56
2022-10-23T10:30:11.945Z,96524.75
2022-10-23T10:32:47.411Z,96530.03
2022-10-23T10:35:35.654Z,96517.34
2022-10-23T10:38:22.081Z,96511.38
2022-10-23T10:41:10.299Z,96511.53
2022-10-23T10:43:44.831Z,96519.63
2022-10-23T10:46:22.677Z,96520.06
2022-10-23T10:49:00.863Z,96522.06
2022-10-23T10:51:36.498Z,96510.94
2022-10-23T10:54:17.041Z,96513.81
2022-10-23T10:56:49.088Z,96516.19
2022-10-23T10:59:25.025Z,96514.63
2022-10-23T11:02:01.001Z,96519.16
2022-10-23T11:04:35.320Z,96503.59
2022-10-23T11:07:09.190Z,96503.84
2022-10-23T11:09:40.416Z,96496.03
2022-10-23T11:12:18.785Z,96508.97
2022-10-23T11:14:48.204Z,96498.09
2022-10-23T11:17:21.570Z,96477.63
2022-10-23T11:20:00.208Z,96491.59
2022-10-23T11:22:35.422Z,96469.81
2022-10-23T11:25:28.739Z,96467.56
2022-10-23T11:28:14.780Z,96475.66
2022-10-23T11:31:01.004Z,96482.25
2022-10-23T11:33:47.888Z,96479.22
2022-10-23T11:36:18.807Z,96467.19
2022-10-23T11:38:50.463Z,96458.78
2022-10-23T11:41:25.298Z,96446.72
2022-10-23T11:44:01.978Z,96449.63
2022-10-23T11:46:33.510Z,96456.16
2022-10-23T11:49:04.222Z,96447.84
2022-10-23T11:51:34.842Z,96438.88
2022-10-23T11:54:09.399Z,96429.31
2022-10-23T11:56:38.342Z,96425.19
2022-10-23T11:59:27.604Z,96422.09
2022-10-23T12:01:59.200Z,96426.09
2022-10-23T12:04:33.436Z,96412.81
2022-10-23T12:07:05.332Z,96406.84
2022-10-23T12:09:41.056Z,96412.31
2022-10-23T12:12:27.170Z,96403.00
2022-10-23T12:15:09.505Z,96398.75
2022-10-23T12:17:40.607Z,96399.00
2022-10-23T12:20:25.302Z,96396.50
2022-10-23T12:23:13.728Z,96403.25
2022-10-23T12:25:59.703Z,96399.19
2022-10-23T12:28:35.879Z,96396.38
2022-10-23T12:31:21.641Z,96394.72
2022-10-23T12:34:01.154Z,96386.97
2022-10-23T12:36:49.728Z,96386.16
2022-10-23T12:39:28.982Z,96386.66
2022-10-23T12:41:58.255Z,96391.13
2022-10-23T12:44:27.734Z,96387.75
2022-10-23T12:47:01.963Z,96383.94
2022-10-23T12:49:34.558Z,96376.00
2022-10-23T12:52:05.625Z,96383.72
2022-10-23T12:54:39.424Z,96373.75
2022-10-23T12:57:20.971Z,96358.56
2022-10-23T12:59:51.062Z,96349.09
2022-10-23T13:02:25.390Z,96349.94
2022-10-23T13:04:55.556Z,96349.66
2022-10-23T13:07:27.968Z,96361.50
2022-10-23T13:10:01.086Z,96354.84
2022-10-23T13:12:36.450Z,96350.25
2022-10-23T13:15:18.173Z,96339.31
2022-10-23T13:17:50.095Z,96345.50
2022-10-23T13:20:26.723Z,96334.72
2022-10-23T13:23:00.942Z,96335.00
2022-10-23T13:25:33.312Z,96329.53
2022-10-23T13:28:13.978Z,96334.63
2022-10-23T13:30:46.299Z,96327.84
2022-10-23T13:33:26.914Z,96320.84
2022-10-23T13:35:57.359Z,96326.19
2022-10-23T13:38:30.102Z,96326.28
2022-10-23T13:41:00.519Z,96331.09
2022-10-23T13:43:30.741Z,96316.28
2022-10-23T13:46:00.192Z,96312.22
2022-10-23T13:48:31.326Z,96305.41
2022-10-23T13:51:11.668Z,96314.59
2022-10-23T13:53:40.087Z,96305.84
2022-10-23T13:56:11.298Z,96303.81
2022-10-23T13:58:40.478Z,96297.69
2022-10-23T14:01:18.748Z,96297.66
2022-10-23T14:03:48.714Z,96298.13
2022-10-23T14:06:17.516Z,96301.59
2022-10-23T14:08:47.449Z,96302.22
2022-10-23T14:11:17.248Z,96308.13
2022-10-23T14:13:46.959Z,96308.00
2022-10-23T14:16:17.500Z,96312.09
2022-10-23T14:18:47.907Z,96310.28
2022-10-23T14:21:20.285Z,96305.25
2022-10-23T14:23:49.760Z,96306.59
2022-10-23T14:26:20.653Z,96301.13
2022-10-23T14:28:49.507Z,96295.31
2022-10-23T14:31:19.271Z,96300.25
2022-10-23T14:33:53.803Z,96296.88
2022-10-23T14:36:23.257Z,96304.81
2022-10-23T14:38:56.672Z,96295.66
2022-10-23T14:41:26.715Z,96288.59
2022-10-23T14:43:56.189Z,96296.03
2022-10-23T14:46:25.831Z,96307.34
2022-10-23T14:48:59.913Z,96298.28
2022-10-23T14:51:31.078Z,96301.91
2022-10-23T14:54:02.685Z,96286.88
2022-10-23T14:56:33.145Z,96293.69
2022-10-23T14:59:04.013Z,96282.28
2022-10-23T15:01:34.913Z,96289.50
2022-10-23T15:04:05.366Z,96287.16
2022-10-23T15:06:34.975Z,96267.00
2022-10-23T15:09:04.978Z,96275.53
2022-10-23T15:11:33.692Z,96262.22
2022-10-23T15:14:03.048Z,96270.53
2022-10-23T15:16:31.723Z,96252.22
2022-10-23T15:19:00.518Z,96254.44
2022-10-23T15:21:30.242Z,96265.63
2022-10-23T15:24:01.655Z,96266.28
2022-10-23T15:26:30.511Z,96259.88
2022-10-23T15:29:00.931Z,96251.16
2022-10-23T15:31:50.420Z,96250.81
2022-10-23T15:34:20.662Z,96262.03
2022-10-23T15:36:52.671Z,96253.47
2022-10-23T15:39:23.725Z,96262.91
2022-10-23T15:41:55.207Z,96262.84
2022-10-23T15:44:25.679Z,96261.31
2022-10-23T15:46:57.302Z,96245.81
2022-10-23T15:49:25.973Z,96249.66
2022-10-23T15:51:56.761Z,96244.78
2022-10-23T15:54:28.133Z,96245.38
2022-10-23T15:56:59.916Z,96248.38
2022-10-23T15:59:28.976Z,96248.41
2022-10-23T16:01:59.132Z,96240.66
2022-10-23T16:04:28.543Z,96246.19
2022-10-23T16:06:58.300Z,96238.97
2022-10-23T16:09:27.568Z,96236.78
2022-10-23T16:11:56.003Z,96243.38
2022-10-23T16:14:25.271Z,96238.16
2022-10-23T16:16:53.630Z,96239.59
2022-10-23T16:19:22.460Z,96225.78
2022-10-23T16:21:50.820Z,96236.06
2022-10-23T16:24:20.985Z,96237.13
2022-10-23T16:26:54.522Z,96242.09
2022-10-23T16:29:23.667Z,96237.25
2022-10-23T16:31:54.724Z,96240.59
2022-10-23T16:34:23.730Z,96240.59
2022-10-23T16:36:53.270Z,96241.16
2022-10-23T16:39:38.411Z,96245.88
2022-10-23T16:42:35.854Z,96230.97
2022-10-23T16:45:12.524Z,96233.44
2022-10-23T16:47:41.232Z,96237.59
2022-10-23T16:50:10.835Z,96233.56
2022-10-23T16:52:39.383Z,96246.22
2022-10-23T16:55:11.018Z,96239.63
2022-10-23T16:57:40.114Z,96231.94
2022-10-23T17:00:09.378Z,96235.53
2022-10-23T17:02:38.768Z,96224.06
2022-10-23T17:05:07.675Z,96239.66
2022-10-23T17:07:37.164Z,96245.44
2022-10-23T17:10:07.212Z,96248.72
2022-10-23T17:12:37.124Z,96245.50
2022-10-23T17:15:07.559Z,96236.06
2022-10-23T17:17:35.998Z,96236.63
2022-10-23T17:20:05.634Z,96241.56
2022-10-23T17:22:35.476Z,96239.34
2022-10-23T17:25:05.109Z,96251.13
2022-10-23T17:27:35.135Z,96239.94
2022-10-23T17:30:07.181Z,96246.22
2022-10-23T17:32:39.395Z,96241.31
2022-10-23T17:35:08.761Z,96241.91
2022-10-23T17:37:37.994Z,96238.13
2022-10-23T17:40:07.217Z,96232.38
2022-10-23T17:42:36.360Z,96225.00
2022-10-23T17:45:07.223Z,96216.91
2022-10-23T17:47:35.678Z,96228.19
2022-10-23T17:50:06.755Z,96235.56
2022-10-23T17:52:35.612Z,96239.66
2022-10-23T17:55:04.255Z,96232.00
2022-10-23T17:57:33.582Z,96233.13
2022-10-23T18:00:03.851Z,96237.47
2022-10-23T18:02:42.492Z,96236.09
2022-10-23T18:05:11.208Z,96245.94
2022-10-23T18:07:40.799Z,96249.50
2022-10-23T18:10:10.193Z,96246.75
2022-10-23T18:12:38.632Z,96247.59
2022-10-23T18:15:08.732Z,96254.41
2022-10-23T18:17:37.173Z,96263.44
2022-10-23T18:20:08.683Z,96272.19
2022-10-23T18:22:37.629Z,96278.75
2022-10-23T18:25:06.830Z,96287.50
2022-10-23T18:27:35.816Z,96282.03
2022-10-23T18:30:04.971Z,96271.69
2022-10-23T18:32:33.335Z,96262.91
2022-10-23T18:35:02.102Z,96254.47
2022-10-23T18:37:35.515Z,96260.75
2022-10-23T18:40:07.893Z,96263.25
2022-10-23T18:42:37.266Z,96259.16
2022-10-23T18:45:06.483Z,96247.69
2022-10-23T18:47:35.106Z,96230.19
2022-10-23T18:50:03.976Z,96248.06
2022-10-23T18:52:34.163Z,96271.56
2022-10-23T18:55:03.874Z,96238.00
2022-10-23T18:57:32.872Z,96210.72
2022-10-23T19:00:01.983Z,96226.06
2022-10-23T19:02:31.483Z,96245.75
2022-10-23T19:05:00.242Z,96256.63
2022-10-23T19:07:29.663Z,96239.44
2022-10-23T19:10:00.145Z,96233.19
2022-10-23T19:12:28.523Z,96234.88
2022-10-23T19:14:57.460Z,96260.53
2022-10-23T19:17:29.108Z,96246.84
2022-10-23T19:20:02.457Z,96241.91
2022-10-23T19:22:32.124Z,96232.97
2022-10-23T19:25:05.392Z,96234.06
2022-10-23T19:27:33.851Z,96234.88
2022-10-23T19:30:05.813Z,96232.38
2022-10-23T19:32:34.205Z,96235.94
2022-10-23T19:35:02.990Z,96225.56
2022-10-23T19:37:31.759Z,96214.63
2022-10-23T19:40:00.270Z,96228.31
2022-10-23T19:42:30.431Z,96227.50
2022-10-23T19:44:58.839Z,96221.75
2022-10-23T19:47:28.018Z,96214.91
2022-10-23T19:49:56.456Z,96219.03
2022-10-23T19:52:25.335Z,96219.06
2022-10-23T19:54:53.816Z,96237.03
2022-10-23T19:57:22.782Z,96227.50
2022-10-23T19:59:53.856Z,96229.13
2022-10-23T20:02:22.519Z,96239.75
2022-10-23T20:04:51.021Z,96255.03
2022-10-23T20:07:19.655Z,96250.13
2022-10-23T20:09:48.672Z,96244.94
2022-10-23T20:12:18.029Z,96250.41
2022-10-23T20:14:46.546Z,96254.28
2022-10-23T20:17:16.784Z,96249.88
2022-10-23T20:19:45.146Z,96245.50
2022-10-23T20:22:13.870Z,96259.44
2022-10-23T20:24:43.756Z,96255.63
2022-10-23T20:27:13.740Z,96259.16
2022-10-23T20:29:43.282Z,96260.78
2022-10-23T20:32:12.215Z,96257.81
2022-10-23T20:34:43.456Z,96264.38
2022-10-23T20:37:12.407Z,96277.22
2022-10-23T20:39:40.759Z,96273.63
2022-10-23T20:42:10.439Z,96271.47
2022-10-23T20:44:38.804Z,96289.19
2022-10-23T20:47:07.563Z,96283.97
2022-10-23T20:49:36.108Z,96284.53
2022-10-23T20:52:06.833Z,96304.75
2022-10-23T20:54:36.375Z,96312.38
2022-10-23T20:57:05.447Z,96324.69
2022-10-23T20:59:35.758Z,96318.13
2022-10-23T21:02:04.265Z,96312.94
2022-10-23T21:04:33.555Z,96301.50
2022-10-23T21:07:10.093Z,96296.84
2022-10-23T21:09:41.415Z,96299.00
2022-10-23T21:12:10.186Z,96308.56
2022-10-23T21:14:39.110Z,96320.59
2022-10-23T21:17:08.534Z,96334.78
2022-10-23T21:19:37.802Z,96338.31
2022-10-23T21:22:06.444Z,96376.81
2022-10-23T21:24:35.350Z,96397.00
2022-10-23T21:27:05.849Z,96416.66
2022-10-23T21:29:34.296Z,96418.31
2022-10-23T21:32:03.540Z,96416.66
2022-10-23T21:34:32.514Z,96412.03
2022-10-23T21:37:17.899Z,96417.75
2022-10-23T21:39:47.050Z,96390.19
2022-10-23T21:42:17.547Z,96393.47
2022-10-23T21:44:47.171Z,96393.44
2022-10-23T21:47:15.584Z,96389.59
2022-10-23T21:49:45.056Z,96398.84
2022-10-23T21:52:15.128Z,96394.22
2022-10-23T21:54:46.991Z,96401.88
2022-10-23T21:57:17.056Z,96398.31
2022-10-23T21:59:46.432Z,96409.53
2022-10-23T22:02:15.058Z,96409.00
2022-10-23T22:04:44.564Z,96409.25
2022-10-23T22:07:15.513Z,96414.19
2022-10-23T22:09:45.381Z,96410.06
2022-10-23T22:12:14.387Z,96422.13
2022-10-23T22:14:44.271Z,96424.84
2022-10-23T22:17:13.374Z,96432.47
2022-10-23T22:19:42.490Z,96433.56
2022-10-23T22:22:10.874Z,96436.81
2022-10-23T22:24:40.036Z,96431.88
2022-10-23T22:27:08.641Z,96432.69
2022-10-23T22:29:37.597Z,96424.00
2022-10-23T22:32:07.482Z,96420.44
2022-10-23T22:34:53.285Z,96434.06
2022-10-23T22:37:22.690Z,96440.34
2022-10-23T22:39:52.683Z,96441.16
2022-10-23T22:42:21.496Z,96444.72
2022-10-23T22:44:50.359Z,96437.94
2022-10-23T22:47:20.971Z,96435.22
2022-10-23T22:49:49.377Z,96439.34
2022-10-23T22:52:18.466Z,96449.41
2022-10-23T22:54:48.899Z,96457.06
2022-10-23T22:57:18.183Z,96450.78
2022-10-23T22:59:46.716Z,96452.16
2022-10-23T23:02:15.930Z,96465.81
2022-10-23T23:04:45.680Z,96475.66
2022-10-23T23:07:15.327Z,96483.56
2022-10-23T23:09:45.834Z,96491.22
2022-10-23T23:12:15.256Z,96490.94
2022-10-23T23:14:44.796Z,96494.75
2022-10-23T23:17:13.246Z,96513.91
2022-10-23T23:19:42.151Z,96498.59
2022-10-23T23:22:11.878Z,96497.25
2022-10-23T23:24:40.847Z,96510.88
2022-10-23T23:27:09.388Z,96518.81
2022-10-23T23:29:38.134Z,96534.13
2022-10-23T23:32:06.945Z,96534.66
2022-10-23T23:34:36.148Z,96534.91
2022-10-23T23:37:05.058Z,96525.09
2022-10-23T23:39:34.808Z,96507.06
2022-10-23T23:42:04.041Z,96507.31
2022-10-23T23:44:32.845Z,96513.59
2022-10-23T23:47:01.287Z,96519.34
2022-10-23T23:49:30.021Z,96524.81
2022-10-23T23:51:59.048Z,96517.16
2022-10-23T23:54:27.598Z,96532.75
2022-10-23T23:57:00.218Z,96537.09
2022-10-23T23:59:28.585Z,96534.91
